Time;durP1;ratioP1;P1;durP2;ratioP2;P2;SDS_P1;SDS_P2;PMS_P1;PMS_P2;Temp;Humidity;BMP_temperature;BMP_pressure;BME280_temperature;BME280_humidity;BME280_pressure;Samples;Min_cycle;Max_cycle;Signal;HPM_P1;HPM_P2
2022/12/31 00:01:30;;;;;;;34.15;2.97;;;10.90;99.90;;;;;;5010953;28;20386;-49
2022/12/31 00:03:57;;;;;;;20.15;2.58;;;10.90;99.90;;;;;;5010688;28;20483;-48
2022/12/31 00:06:27;;;;;;;20.95;2.60;;;10.90;99.90;;;;;;5011333;28;20164;-47
2022/12/31 00:08:55;;;;;;;17.55;2.20;;;10.90;99.90;;;;;;5011296;28;20048;-52
2022/12/31 00:11:22;;;;;;;16.75;2.55;;;10.90;99.90;;;;;;5011240;28;20432;-50
2022/12/31 00:13:47;;;;;;;22.63;2.50;;;10.80;99.90;;;;;;5010964;28;20030;-47
2022/12/31 00:16:17;;;;;;;18.65;2.63;;;10.80;99.90;;;;;;5011301;28;20396;-47
2022/12/31 00:18:44;;;;;;;;;;;10.80;99.90;;;;;;5011405;28;20452;-49
2022/12/31 00:21:10;;;;;;;24.67;3.20;;;10.80;99.90;;;;;;5011199;28;19918;-47
2022/12/31 00:23:36;;;;;;;21.17;2.30;;;10.80;99.90;;;;;;5010674;28;20037;-46
2022/12/31 00:26:08;;;;;;;16.52;2.88;;;10.80;99.90;;;;;;5010904;28;20072;-46
2022/12/31 00:28:34;;;;;;;25.88;3.38;;;10.80;99.90;;;;;;5010952;28;20413;-49
2022/12/31 00:31:09;;;;;;;18.40;2.20;;;10.80;99.90;;;;;;4993293;28;20117;-48
2022/12/31 00:33:34;;;;;;;15.50;2.10;;;10.80;99.90;;;;;;4985684;28;20022;-49
2022/12/31 00:36:19;;;;;;;17.98;2.40;;;10.80;99.90;;;;;;5010811;28;20080;-49
2022/12/31 00:38:46;;;;;;;19.17;2.60;;;10.80;99.90;;;;;;4986762;28;20030;-48
2022/12/31 00:41:13;;;;;;;14.45;2.00;;;10.80;99.90;;;;;;5010875;28;20026;-48
2022/12/31 00:43:39;;;;;;;14.35;1.83;;;10.80;99.90;;;;;;5010747;28;20026;-49
2022/12/31 00:46:05;;;;;;;19.90;2.55;;;10.80;99.90;;;;;;5010782;28;20488;-51
2022/12/31 00:48:31;;;;;;;15.80;2.28;;;10.80;99.90;;;;;;5010837;28;20018;-51
2022/12/31 00:50:57;;;;;;;23.35;2.35;;;10.80;99.90;;;;;;5010679;28;20064;-48
2022/12/31 00:53:24;;;;;;;12.45;2.05;;;10.70;99.90;;;;;;5013533;28;20029;-51
2022/12/31 00:55:50;;;;;;;18.25;1.77;;;10.80;99.90;;;;;;5014744;28;20527;-47
2022/12/31 00:58:16;;;;;;;12.10;1.75;;;10.70;99.90;;;;;;5014064;28;20029;-48
2022/12/31 01:00:41;;;;;;;18.42;2.05;;;10.80;99.90;;;;;;5014506;28;20017;-47
2022/12/31 01:03:08;;;;;;;20.40;2.47;;;10.70;99.90;;;;;;5014598;28;20030;-48
2022/12/31 01:05:35;;;;;;;13.82;1.60;;;10.70;99.90;;;;;;5014413;28;20022;-47
2022/12/31 01:08:01;;;;;;;19.02;2.40;;;10.70;99.90;;;;;;5014428;28;20432;-50
2022/12/31 01:13:11;;;;;;;12.80;2.28;;;10.60;99.90;;;;;;5014710;28;20029;-51
2022/12/31 01:15:38;;;;;;;16.45;2.58;;;10.60;99.90;;;;;;5014470;28;20054;-50
2022/12/31 01:18:05;;;;;;;14.00;1.85;;;10.70;99.90;;;;;;5014281;28;20025;-48
2022/12/31 01:20:36;;;;;;;11.65;1.48;;;10.60;99.90;;;;;;5014096;28;20025;-52
2022/12/31 01:23:02;;;;;;;14.63;2.13;;;10.60;99.90;;;;;;5014163;28;20036;-50
2022/12/31 01:25:27;;;;;;;14.45;2.25;;;10.60;99.90;;;;;;5014101;28;20046;-49
2022/12/31 01:27:53;;;;;;;13.43;2.28;;;10.60;99.90;;;;;;5014127;28;20041;-49
2022/12/31 01:30:19;;;;;;;12.25;1.55;;;10.60;99.90;;;;;;5014250;28;20026;-47
2022/12/31 01:32:44;;;;;;;17.05;2.13;;;10.50;99.90;;;;;;5014055;28;20105;-47
2022/12/31 01:35:10;;;;;;;15.38;2.25;;;10.50;99.90;;;;;;5014177;28;20092;-48
2022/12/31 01:37:35;;;;;;;13.02;1.73;;;10.50;99.90;;;;;;5013608;28;20452;-48
2022/12/31 01:40:01;;;;;;;13.55;1.85;;;10.50;99.90;;;;;;5013792;28;20030;-49
2022/12/31 01:42:27;;;;;;;13.23;1.98;;;10.50;99.90;;;;;;5013814;28;20038;-47
2022/12/31 01:44:54;;;;;;;12.60;1.33;;;10.50;99.90;;;;;;5013409;28;20040;-52
2022/12/31 01:47:42;;;;;;;14.05;1.42;;;10.50;99.90;;;;;;5013945;28;20053;-47
2022/12/31 01:50:23;;;;;;;15.40;1.50;;;10.40;99.90;;;;;;5013409;28;20042;-47
2022/12/31 01:52:55;;;;;;;11.45;1.42;;;10.50;99.90;;;;;;5013697;28;20409;-53
2022/12/31 01:55:43;;;;;;;10.13;1.77;;;10.50;99.90;;;;;;5013402;28;20470;-51
2022/12/31 01:58:17;;;;;;;12.15;1.35;;;10.50;99.90;;;;;;5013080;28;20547;-48
2022/12/31 02:00:43;;;;;;;6.45;1.15;;;10.50;99.90;;;;;;5013696;28;20018;-55
2022/12/31 02:03:09;;;;;;;8.85;1.52;;;10.60;99.90;;;;;;5013208;28;20018;-51
2022/12/31 02:05:43;;;;;;;12.43;1.45;;;10.60;99.90;;;;;;5012685;28;20104;-52
2022/12/31 02:08:09;;;;;;;7.07;1.02;;;10.60;99.90;;;;;;5013561;28;20077;-50
2022/12/31 02:10:34;;;;;;;6.90;1.20;;;10.60;99.90;;;;;;5013158;28;20147;-47
2022/12/31 02:13:00;;;;;;;6.93;1.13;;;10.60;99.90;;;;;;5013317;28;20060;-49
2022/12/31 02:15:34;;;;;;;7.55;1.52;;;10.50;99.90;;;;;;5013232;28;20053;-49
2022/12/31 02:18:17;;;;;;;6.13;1.45;;;10.60;99.90;;;;;;5013361;28;20022;-51
2022/12/31 02:21:17;;;;;;;4.72;0.90;;;10.50;99.90;;;;;;5013406;28;20034;-51
2022/12/31 02:24:07;;;;;;;8.88;0.90;;;10.50;99.90;;;;;;4993544;28;20076;-51
2022/12/31 02:27:06;;;;;;;9.57;0.80;;;10.50;99.90;;;;;;5013122;28;20084;-50
2022/12/31 02:29:50;;;;;;;5.45;0.80;;;10.60;99.90;;;;;;5012990;28;20018;-51
2022/12/31 02:32:40;;;;;;;2.08;0.63;;;10.50;99.90;;;;;;5013249;28;20030;-45
2022/12/31 02:35:18;;;;;;;7.53;1.52;;;10.60;99.90;;;;;;5012661;28;20492;-52
2022/12/31 02:37:47;;;;;;;4.20;0.70;;;10.50;99.90;;;;;;5012857;28;20550;-47
2022/12/31 02:40:16;;;;;;;3.85;0.63;;;10.60;99.90;;;;;;5012778;28;20034;-54
2022/12/31 02:42:42;;;;;;;2.38;0.88;;;10.60;99.90;;;;;;5012970;28;20026;-49
2022/12/31 02:45:12;;;;;;;5.95;1.02;;;10.60;99.90;;;;;;5012790;28;20025;-51
2022/12/31 02:47:56;;;;;;;1.85;0.70;;;10.60;99.90;;;;;;5012781;28;20473;-56
2022/12/31 02:50:59;;;;;;;1.83;0.80;;;10.60;99.90;;;;;;5012714;28;20033;-47
2022/12/31 02:53:40;;;;;;;2.30;0.80;;;10.60;99.90;;;;;;4988086;28;20038;-50
2022/12/31 02:56:23;;;;;;;4.53;0.70;;;10.70;99.90;;;;;;5012629;28;20049;-48
2022/12/31 03:02:14;;;;;;;4.85;0.68;;;10.80;99.90;;;;;;5012593;28;20055;-47
2022/12/31 03:04:51;;;;;;;3.08;0.68;;;10.70;99.90;;;;;;5011897;28;20072;-48
2022/12/31 03:07:29;;;;;;;4.82;0.70;;;10.70;99.90;;;;;;5011921;28;20424;-49
2022/12/31 03:09:55;;;;;;;3.28;0.55;;;10.70;99.90;;;;;;5012382;28;20029;-46
2022/12/31 03:15:18;;;;;;;8.30;1.05;;;10.80;99.90;;;;;;5012324;28;20070;-53
2022/12/31 03:17:49;;;;;;;3.55;0.60;;;10.90;99.90;;;;;;5012222;28;20026;-49
2022/12/31 03:23:00;;;;;;;4.50;0.82;;;10.90;99.90;;;;;;5012380;28;20473;-48
2022/12/31 03:25:34;;;;;;;6.90;0.80;;;10.90;99.90;;;;;;5011827;28;20513;-46
2022/12/31 03:28:09;;;;;;;6.95;0.90;;;11.00;99.90;;;;;;5011909;28;20029;-46
2022/12/31 03:30:37;;;;;;;8.02;1.15;;;11.00;99.90;;;;;;5011985;28;20025;-46
2022/12/31 03:33:04;;;;;;;5.90;1.17;;;11.00;99.90;;;;;;5011680;28;20116;-52
2022/12/31 03:35:32;;;;;;;6.20;1.33;;;11.00;99.90;;;;;;5011622;28;20041;-51
2022/12/31 03:37:57;;;;;;;7.68;1.13;;;11.10;99.90;;;;;;5011020;28;20026;-48
2022/12/31 03:40:25;;;;;;;4.68;1.05;;;11.10;99.90;;;;;;5011417;28;20026;-52
2022/12/31 03:42:51;;;;;;;4.72;1.33;;;11.20;99.90;;;;;;4993925;28;20018;-48
2022/12/31 03:45:17;;;;;;;2.72;0.70;;;11.30;99.90;;;;;;5011172;28;20447;-48
2022/12/31 03:47:43;;;;;;;2.50;0.60;;;11.40;99.90;;;;;;5011735;28;20056;-47
2022/12/31 03:50:11;;;;;;;8.63;1.10;;;11.40;99.90;;;;;;5011287;28;20034;-49
2022/12/31 03:52:37;;;;;;;4.05;0.60;;;11.40;99.90;;;;;;5011406;28;20033;-47
2022/12/31 03:55:03;;;;;;;2.25;0.63;;;11.50;99.90;;;;;;5010959;28;20366;-48
2022/12/31 03:57:29;;;;;;;2.60;0.65;;;11.50;99.90;;;;;;5010888;28;20722;-47
2022/12/31 03:59:54;;;;;;;3.13;0.90;;;11.50;99.90;;;;;;5011084;28;20079;-49
2022/12/31 04:02:20;;;;;;;2.42;0.90;;;11.60;99.90;;;;;;5011126;28;20100;-49
2022/12/31 04:04:46;;;;;;;2.35;0.90;;;11.80;99.90;;;;;;5011202;28;20508;-50
2022/12/31 04:07:11;;;;;;;6.72;0.70;;;11.90;99.90;;;;;;5010886;28;20022;-47
2022/12/31 04:09:37;;;;;;;5.88;0.90;;;11.90;99.90;;;;;;5011196;28;20026;-47
2022/12/31 04:12:03;;;;;;;5.60;0.90;;;12.10;99.90;;;;;;4996082;28;20509;-55
2022/12/31 04:14:28;;;;;;;5.32;0.70;;;12.20;99.90;;;;;;4970404;28;20039;-49
2022/12/31 04:16:54;;;;;;;7.78;1.25;;;12.20;99.90;;;;;;4984071;28;20026;-50
2022/12/31 04:19:20;;;;;;;7.47;1.23;;;12.30;99.90;;;;;;4990706;28;20101;-48
2022/12/31 04:21:45;;;;;;;8.95;1.30;;;12.30;99.90;;;;;;4991884;28;20026;-49
2022/12/31 04:24:11;;;;;;;8.98;1.23;;;12.40;99.90;;;;;;4981390;28;20482;-49
2022/12/31 04:26:37;;;;;;;15.00;1.33;;;12.50;99.90;;;;;;4990506;28;20528;-51
2022/12/31 04:29:03;;;;;;;13.32;1.30;;;12.50;99.90;;;;;;4991406;28;20041;-50
2022/12/31 04:31:29;;;;;;;17.55;2.55;;;12.50;99.90;;;;;;4991266;28;20542;-50
2022/12/31 04:33:55;;;;;;;12.02;1.85;;;12.60;99.90;;;;;;4990685;28;20545;-53
2022/12/31 04:36:21;;;;;;;10.13;1.40;;;12.70;99.90;;;;;;4991314;28;20026;-54
2022/12/31 04:38:46;;;;;;;14.45;2.63;;;12.70;99.90;;;;;;4990996;28;20027;-47
2022/12/31 04:41:19;;;;;;;17.27;1.90;;;12.70;99.90;;;;;;4990787;28;20037;-47
2022/12/31 04:43:45;;;;;;;9.00;1.40;;;12.70;99.90;;;;;;4991248;28;20030;-47
2022/12/31 04:46:11;;;;;;;13.20;1.75;;;12.80;99.90;;;;;;4990791;28;20040;-49
2022/12/31 04:48:37;;;;;;;9.10;1.60;;;12.80;99.90;;;;;;4990977;28;20034;-50
2022/12/31 04:51:03;;;;;;;15.63;1.60;;;12.80;99.90;;;;;;4990666;28;20068;-52
2022/12/31 04:53:29;;;;;;;13.95;1.85;;;12.80;99.90;;;;;;4990153;28;20410;-48
2022/12/31 04:55:54;;;;;;;10.55;1.38;;;12.80;99.90;;;;;;4990384;28;20053;-49
2022/12/31 04:58:20;;;;;;;15.88;2.00;;;12.80;99.90;;;;;;4990784;28;20097;-49
2022/12/31 05:00:48;;;;;;;18.77;1.67;;;12.80;99.90;;;;;;4990859;28;20041;-55
2022/12/31 05:03:17;;;;;;;14.13;2.42;;;12.80;99.90;;;;;;4990143;28;20041;-54
2022/12/31 05:05:43;;;;;;;14.20;2.38;;;12.90;99.90;;;;;;4990821;28;20026;-49
2022/12/31 05:08:10;;;;;;;17.25;1.92;;;12.90;99.90;;;;;;4990341;28;20106;-53
2022/12/31 05:10:40;;;;;;;17.63;1.58;;;12.90;99.90;;;;;;4987240;28;20090;-47
2022/12/31 05:13:05;;;;;;;;;;;12.90;99.90;;;;;;4987261;28;20050;-51
2022/12/31 05:15:31;;;;;;;11.02;1.67;;;12.90;99.90;;;;;;4986930;28;20400;-50
2022/12/31 05:17:56;;;;;;;15.15;1.65;;;12.90;99.90;;;;;;4981559;28;20031;-50
2022/12/31 05:20:22;;;;;;;12.02;1.77;;;12.90;99.90;;;;;;4990054;28;20025;-53
2022/12/31 05:22:47;;;;;;;12.70;2.40;;;12.90;99.90;;;;;;4981739;28;20026;-50
2022/12/31 05:25:13;;;;;;;13.98;2.08;;;12.90;99.90;;;;;;4986705;28;20148;-51
2022/12/31 05:27:39;;;;;;;19.08;2.05;;;12.90;99.90;;;;;;4972796;28;20023;-48
2022/12/31 05:30:05;;;;;;;19.92;2.10;;;12.90;99.90;;;;;;4982352;28;20035;-47
2022/12/31 05:32:31;;;;;;;22.75;2.40;;;12.90;99.90;;;;;;4990053;28;20022;-48
2022/12/31 05:34:58;;;;;;;17.17;1.90;;;13.00;99.90;;;;;;4990168;28;20042;-54
2022/12/31 05:37:24;;;;;;;20.20;2.13;;;12.90;99.90;;;;;;4989868;28;20474;-47
2022/12/31 05:39:50;;;;;;;20.88;3.30;;;12.90;99.90;;;;;;4991870;28;20026;-50
2022/12/31 05:42:16;;;;;;;15.60;2.45;;;12.90;99.90;;;;;;4993951;28;20109;-48
2022/12/31 05:44:41;;;;;;;19.13;2.33;;;12.90;99.90;;;;;;4994270;28;20062;-54
2022/12/31 05:47:07;;;;;;;18.85;2.50;;;12.90;99.90;;;;;;4993930;28;20022;-53
2022/12/31 05:49:33;;;;;;;16.40;2.63;;;12.90;99.90;;;;;;4987928;28;20030;-48
2022/12/31 05:51:58;;;;;;;20.77;2.72;;;12.90;99.90;;;;;;4987192;28;20085;-47
2022/12/31 05:54:24;;;;;;;22.77;3.17;;;12.80;99.90;;;;;;4993941;28;20034;-55
2022/12/31 05:56:50;;;;;;;14.27;2.35;;;12.90;99.90;;;;;;4994144;28;20022;-51
2022/12/31 05:59:15;;;;;;;15.52;1.98;;;12.90;99.90;;;;;;4993731;28;20022;-48
2022/12/31 06:01:41;;;;;;;16.35;2.03;;;12.90;99.90;;;;;;4987714;28;20387;-47
2022/12/31 06:04:06;;;;;;;16.10;2.00;;;12.90;99.90;;;;;;4988002;28;20030;-53
2022/12/31 06:06:32;;;;;;;16.20;2.60;;;13.00;99.90;;;;;;4990188;28;20042;-47
2022/12/31 06:08:58;;;;;;;11.75;2.42;;;13.10;99.90;;;;;;4993269;28;20053;-48
2022/12/31 06:11:23;;;;;;;15.50;3.30;;;13.10;99.90;;;;;;4974751;28;20050;-52
2022/12/31 06:13:49;;;;;;;20.52;2.58;;;13.10;99.90;;;;;;4993590;28;20484;-48
2022/12/31 06:16:14;;;;;;;15.27;2.03;;;13.10;99.90;;;;;;4992570;28;20040;-52
2022/12/31 06:18:40;;;;;;;14.02;2.10;;;13.10;99.90;;;;;;4993361;28;20021;-50
2022/12/31 06:21:06;;;;;;;20.50;2.53;;;13.00;99.90;;;;;;4993652;28;20366;-49
2022/12/31 06:23:32;;;;;;;19.52;3.47;;;13.10;99.90;;;;;;4992722;28;20023;-50
2022/12/31 06:26:02;;;;;;;17.58;2.63;;;13.00;99.90;;;;;;4992829;28;20092;-47
2022/12/31 06:28:27;;;;;;;25.40;2.80;;;13.00;99.90;;;;;;4992706;28;20042;-50
2022/12/31 06:30:59;;;;;;;18.42;2.35;;;13.00;99.90;;;;;;4993008;28;20111;-46
2022/12/31 06:33:24;;;;;;;18.35;2.40;;;13.10;99.90;;;;;;4992697;28;20118;-49
2022/12/31 06:35:54;;;;;;;13.52;2.47;;;13.00;99.90;;;;;;4992614;28;20117;-48
2022/12/31 06:38:20;;;;;;;23.75;3.15;;;13.00;99.90;;;;;;4993254;28;20081;-54
2022/12/31 06:40:45;;;;;;;16.75;2.35;;;13.00;99.90;;;;;;4993075;28;20034;-49
2022/12/31 06:43:11;;;;;;;18.88;2.47;;;12.90;99.90;;;;;;4993246;28;20018;-53
2022/12/31 06:45:38;;;;;;;25.67;2.63;;;12.90;99.90;;;;;;4993137;28;20116;-46
2022/12/31 06:48:04;;;;;;;18.05;2.53;;;12.90;99.90;;;;;;4993145;28;20440;-50
2022/12/31 06:50:30;;;;;;;20.17;2.70;;;12.90;99.90;;;;;;4992473;28;20425;-50
2022/12/31 06:52:55;;;;;;;16.13;2.15;;;12.90;99.90;;;;;;4993036;28;20045;-50
2022/12/31 06:55:21;;;;;;;22.08;2.70;;;12.90;99.90;;;;;;4992897;28;20034;-52
2022/12/31 06:57:47;;;;;;;17.88;3.90;;;12.80;99.90;;;;;;4992887;28;20026;-53
2022/12/31 07:00:14;;;;;;;16.67;2.17;;;12.90;99.90;;;;;;4990875;28;20034;-52
2022/12/31 07:03:00;;;;;;;19.85;2.30;;;13.00;99.90;;;;;;4989472;28;20045;-57
2022/12/31 07:05:38;;;;;;;14.90;2.90;;;13.00;99.90;;;;;;4989446;28;20043;-53
2022/12/31 07:08:31;;;;;;;15.82;2.33;;;13.00;99.90;;;;;;4992029;28;20026;-58
2022/12/31 07:11:22;;;;;;;21.08;3.78;;;13.00;99.90;;;;;;4984482;28;20099;-47
2022/12/31 07:14:09;;;;;;;14.40;1.95;;;13.10;99.90;;;;;;4991727;28;20053;-46
2022/12/31 07:17:01;;;;;;;13.27;2.40;;;13.10;99.90;;;;;;4991563;28;20034;-50
2022/12/31 07:19:57;;;;;;;17.42;2.40;;;13.10;99.90;;;;;;4987155;28;20176;-50
2022/12/31 07:22:23;;;;;;;13.50;2.22;;;13.10;99.90;;;;;;4992081;28;20485;-51
2022/12/31 07:24:49;;;;;;;19.35;2.50;;;13.00;99.90;;;;;;4989750;28;20103;-49
2022/12/31 07:27:36;;;;;;;18.98;2.60;;;13.00;99.90;;;;;;4988584;28;20128;-53
2022/12/31 07:30:27;;;;;;;15.32;2.53;;;13.10;99.90;;;;;;4992082;28;20065;-46
2022/12/31 07:33:21;;;;;;;13.48;1.50;;;13.20;99.90;;;;;;4984029;28;20478;-53
2022/12/31 07:36:16;;;;;;;12.38;2.05;;;13.20;99.90;;;;;;4963259;28;20050;-49
2022/12/31 07:38:51;;;;;;;14.90;1.55;;;13.30;99.90;;;;;;4986020;28;20035;-53
2022/12/31 07:41:36;;;;;;;16.50;2.13;;;13.30;99.90;;;;;;4991913;28;20363;-50
2022/12/31 07:44:19;;;;;;;17.92;2.65;;;13.30;99.90;;;;;;4985604;28;20023;-48
2022/12/31 07:47:00;;;;;;;16.85;2.35;;;13.20;99.90;;;;;;4991940;28;20026;-50
2022/12/31 07:49:28;;;;;;;19.05;3.28;;;13.20;99.90;;;;;;4992025;28;20018;-49
2022/12/31 07:51:54;;;;;;;18.88;2.70;;;13.20;99.90;;;;;;4991758;28;20030;-48
2022/12/31 07:54:20;;;;;;;18.38;2.45;;;13.20;99.90;;;;;;4991452;28;20026;-47
2022/12/31 07:56:46;;;;;;;25.77;3.50;;;13.20;99.90;;;;;;4991753;28;20492;-48
2022/12/31 07:59:47;;;;;;;25.98;3.65;;;13.20;99.90;;;;;;4991805;28;20474;-48
2022/12/31 08:02:47;;;;;;;22.42;2.70;;;13.20;99.90;;;;;;4991060;28;20043;-50
2022/12/31 08:05:33;;;;;;;28.45;3.08;;;13.10;99.90;;;;;;4987745;28;20019;-51
2022/12/31 08:08:27;;;;;;;25.50;3.00;;;13.10;99.90;;;;;;4991498;28;20026;-49
2022/12/31 08:11:15;;;;;;;22.63;2.72;;;13.20;99.90;;;;;;4990630;28;20034;-49
2022/12/31 08:13:41;;;;;;;13.57;1.77;;;13.20;99.90;;;;;;4990337;28;20089;-47
2022/12/31 08:16:11;;;;;;;19.67;2.70;;;13.20;99.90;;;;;;4991503;28;20332;-46
2022/12/31 08:18:37;;;;;;;19.48;2.63;;;13.20;99.90;;;;;;4991425;28;20508;-45
2022/12/31 08:21:15;;;;;;;20.90;3.03;;;13.20;99.90;;;;;;4991726;28;20065;-49
2022/12/31 08:23:59;;;;;;;15.15;2.80;;;13.20;99.90;;;;;;4991349;28;20532;-47
2022/12/31 08:26:59;;;;;;;24.60;2.78;;;13.20;99.90;;;;;;4991342;28;20050;-52
2022/12/31 08:29:41;;;;;;;20.73;2.90;;;13.20;99.90;;;;;;4980218;28;20506;-48
2022/12/31 08:32:30;;;;;;;24.45;3.88;;;13.10;99.90;;;;;;4989003;28;20022;-53
2022/12/31 08:35:26;;;;;;;15.30;2.75;;;13.10;99.90;;;;;;4989414;28;20104;-50
2022/12/31 08:38:02;;;;;;;22.80;3.17;;;13.10;99.90;;;;;;4978482;28;20470;-49
2022/12/31 08:41:05;;;;;;;17.00;2.33;;;13.20;99.90;;;;;;4988966;28;20031;-47
2022/12/31 08:43:57;;;;;;;16.05;2.55;;;13.20;99.90;;;;;;4989150;28;20413;-46
2022/12/31 08:47:08;;;;;;;23.55;2.50;;;13.30;99.90;;;;;;4990982;28;20038;-52
2022/12/31 08:49:34;;;;;;;22.98;2.47;;;13.30;99.90;;;;;;4991396;28;20030;-47
2022/12/31 08:52:01;;;;;;;17.50;2.92;;;13.10;99.90;;;;;;4991200;28;20018;-47
2022/12/31 08:54:27;;;;;;;18.98;2.78;;;13.00;99.90;;;;;;4991030;28;20078;-54
2022/12/31 08:57:02;;;;;;;17.42;2.47;;;12.90;99.90;;;;;;4991039;28;20019;-50
2022/12/31 08:59:55;;;;;;;21.33;2.67;;;12.80;99.90;;;;;;4990825;28;20030;-54
2022/12/31 09:02:39;;;;;;;17.85;3.15;;;12.80;99.90;;;;;;4990721;28;20078;-51
2022/12/31 09:05:17;;;;;;;15.35;1.92;;;12.70;99.90;;;;;;4991072;28;20054;-48
2022/12/31 09:07:55;;;;;;;13.88;1.95;;;12.70;99.90;;;;;;4990816;28;20513;-50
2022/12/31 09:10:43;;;;;;;16.77;1.75;;;12.70;99.90;;;;;;4991185;28;20050;-46
2022/12/31 09:13:11;;;;;;;17.55;2.90;;;12.70;99.90;;;;;;4991773;28;20022;-47
2022/12/31 09:15:55;;;;;;;17.07;2.40;;;12.60;99.90;;;;;;4994803;28;20038;-46
2022/12/31 09:18:22;;;;;;;18.73;2.95;;;12.60;99.90;;;;;;4994607;28;20065;-48
2022/12/31 09:20:48;;;;;;;20.33;2.75;;;12.60;99.90;;;;;;4995059;28;20390;-46
2022/12/31 09:23:13;;;;;;;23.92;3.13;;;12.50;99.90;;;;;;4994656;28;20019;-47
2022/12/31 09:26:06;;;;;;;17.75;2.58;;;12.50;99.90;;;;;;4981293;28;20058;-46
2022/12/31 09:29:10;;;;;;;26.48;3.47;;;12.50;99.90;;;;;;4994304;28;20045;-49
2022/12/31 09:31:52;;;;;;;20.75;3.42;;;12.60;99.90;;;;;;4994402;28;20022;-46
2022/12/31 09:34:48;;;;;;;16.77;2.30;;;12.60;99.90;;;;;;4994336;28;20046;-50
2022/12/31 09:37:28;;;;;;;19.88;2.97;;;12.50;99.90;;;;;;4994223;28;20030;-47
2022/12/31 09:39:58;;;;;;;17.52;2.47;;;12.50;99.90;;;;;;4994303;28;20102;-49
2022/12/31 09:42:42;;;;;;;12.52;1.90;;;12.50;99.90;;;;;;4993992;28;20466;-53
2022/12/31 09:45:26;;;;;;;17.23;2.22;;;12.40;99.90;;;;;;4994104;28;20521;-50
2022/12/31 09:48:05;;;;;;;15.68;2.33;;;12.40;99.90;;;;;;4994372;28;20014;-48
2022/12/31 09:50:52;;;;;;;16.63;2.33;;;12.40;99.90;;;;;;4994217;28;20058;-47
2022/12/31 09:53:45;;;;;;;17.58;2.08;;;12.40;99.90;;;;;;4994308;28;20097;-47
2022/12/31 09:56:27;;;;;;;14.93;2.53;;;12.30;99.90;;;;;;4993997;28;20038;-46
2022/12/31 09:59:04;;;;;;;12.95;2.00;;;12.30;99.90;;;;;;4993856;28;20023;-49
2022/12/31 10:01:44;;;;;;;12.70;2.80;;;12.20;99.90;;;;;;4993872;28;20033;-48
2022/12/31 10:04:33;;;;;;;10.32;1.35;;;12.20;99.90;;;;;;4993915;28;20049;-47
2022/12/31 10:07:16;;;;;;;9.32;2.03;;;12.20;99.90;;;;;;4993981;28;20036;-50
2022/12/31 10:10:32;;;;;;;13.38;3.20;;;12.20;99.90;;;;;;4993665;28;20015;-50
2022/12/31 10:13:01;;;;;;;10.18;1.73;;;12.20;99.90;;;;;;4950279;28;20050;-46
2022/12/31 10:15:42;;;;;;;12.27;1.67;;;12.10;99.90;;;;;;4993987;28;20034;-51
2022/12/31 10:18:42;;;;;;;10.48;2.03;;;12.10;99.90;;;;;;4993493;28;20057;-52
2022/12/31 10:21:24;;;;;;;8.82;1.60;;;12.10;99.90;;;;;;4993931;28;20593;-46
2022/12/31 10:24:47;;;;;;;14.02;1.70;;;12.10;99.90;;;;;;4993624;28;20041;-45
2022/12/31 10:27:57;;;;;;;13.88;3.00;;;12.20;99.90;;;;;;4914123;29;20144;-47
2022/12/31 10:30:24;;;;;;;13.32;3.00;;;12.40;99.90;;;;;;4876477;29;20453;-52
2022/12/31 10:33:12;;;;;;;24.48;3.00;;;12.50;99.90;;;;;;4920240;29;20032;-46
2022/12/31 10:35:42;;;;;;;24.17;2.65;;;12.60;99.90;;;;;;4970445;28;20042;-48
2022/12/31 10:38:15;;;;;;;;;;;12.70;99.90;;;;;;4993695;28;20548;-50
2022/12/31 10:40:43;;;;;;;22.38;3.10;;;12.80;99.90;;;;;;4993042;28;19905;-51
2022/12/31 10:43:31;;;;;;;24.60;3.40;;;12.80;99.90;;;;;;4993080;28;20453;-51
2022/12/31 10:46:17;;;;;;;36.30;4.93;;;12.80;99.90;;;;;;4993030;28;20447;-48
2022/12/31 10:49:07;;;;;;;39.38;5.57;;;12.80;99.90;;;;;;4993270;28;20561;-47
2022/12/31 10:52:06;;;;;;;38.40;5.90;;;12.80;99.90;;;;;;4982818;28;20032;-49
2022/12/31 10:55:00;;;;;;;40.55;5.95;;;12.80;99.90;;;;;;4992861;28;20031;-51
2022/12/31 10:57:45;;;;;;;41.30;5.78;;;12.80;99.90;;;;;;4992824;28;20062;-47
2022/12/31 11:00:19;;;;;;;34.38;5.18;;;12.80;99.90;;;;;;4992988;28;20026;-46
2022/12/31 11:03:03;;;;;;;33.22;5.55;;;12.90;99.90;;;;;;4992549;28;20117;-51
2022/12/31 11:06:05;;;;;;;39.42;5.30;;;12.90;99.90;;;;;;4992841;28;20026;-47
2022/12/31 11:09:08;;;;;;;39.83;6.78;;;12.90;99.90;;;;;;4992594;28;20026;-46
2022/12/31 11:11:55;;;;;;;37.00;6.30;;;12.90;99.90;;;;;;4992757;28;20018;-47
2022/12/31 11:15:08;;;;;;;42.33;5.55;;;12.90;99.90;;;;;;4992425;28;20038;-46
2022/12/31 11:17:43;;;;;;;46.47;7.65;;;12.90;99.90;;;;;;4949179;28;20039;-46
2022/12/31 11:20:27;;;;;;;46.70;7.18;;;12.90;99.90;;;;;;4979896;28;20509;-47
2022/12/31 11:23:03;;;;;;;31.17;4.78;;;12.90;99.90;;;;;;4992519;28;20394;-48
2022/12/31 11:26:10;;;;;;;35.75;5.45;;;12.90;99.90;;;;;;4992000;28;20053;-49
2022/12/31 11:28:49;;;;;;;38.95;5.78;;;12.80;99.90;;;;;;4990848;28;20126;-47
2022/12/31 11:31:17;;;;;;;41.50;5.30;;;12.80;99.90;;;;;;4991647;28;20033;-47
2022/12/31 11:34:09;;;;;;;35.20;6.38;;;12.80;99.90;;;;;;4990353;28;20030;-48
2022/12/31 11:36:50;;;;;;;42.17;6.57;;;12.70;99.90;;;;;;4984713;28;20043;-46
2022/12/31 11:39:40;;;;;;;31.63;5.78;;;12.70;99.90;;;;;;4989109;28;20026;-50
2022/12/31 11:42:45;;;;;;;33.20;7.03;;;12.70;99.90;;;;;;4991404;28;20041;-46
2022/12/31 11:45:56;;;;;;;36.50;7.32;;;12.70;99.90;;;;;;4924680;28;20047;-47
2022/12/31 11:48:46;;;;;;;39.92;7.07;;;12.70;99.90;;;;;;4965113;28;20121;-46
2022/12/31 11:51:30;;;;;;;43.65;6.57;;;12.70;99.90;;;;;;4982932;28;20023;-47
2022/12/31 11:54:02;;;;;;;31.42;6.00;;;12.70;99.90;;;;;;4989465;28;20030;-49
2022/12/31 11:56:37;;;;;;;36.45;6.13;;;12.60;99.90;;;;;;4991221;28;20037;-46
2022/12/31 11:59:09;;;;;;;32.60;5.90;;;12.60;99.90;;;;;;4991198;28;20026;-47
2022/12/31 12:01:50;;;;;;;39.88;6.07;;;12.60;99.90;;;;;;4989589;28;20026;-46
2022/12/31 12:04:15;;;;;;;43.55;7.68;;;12.60;99.90;;;;;;4991675;28;20508;-55
2022/12/31 12:06:44;;;;;;;37.28;6.72;;;12.50;99.90;;;;;;4992148;28;20026;-47
2022/12/31 12:09:19;;;;;;;35.03;5.83;;;12.50;99.90;;;;;;4987419;28;20077;-52
2022/12/31 12:11:45;;;;;;;30.92;7.03;;;12.50;99.90;;;;;;4991586;28;20019;-46
2022/12/31 12:14:29;;;;;;;43.15;7.03;;;12.50;99.90;;;;;;4970971;28;20034;-47
2022/12/31 12:16:56;;;;;;;36.58;7.68;;;12.50;99.90;;;;;;4989626;28;20529;-46
2022/12/31 12:19:24;;;;;;;46.50;6.70;;;12.50;99.90;;;;;;4991090;28;20046;-47
2022/12/31 12:21:50;;;;;;;34.13;6.93;;;12.50;99.90;;;;;;4988810;28;20027;-53
2022/12/31 12:24:23;;;;;;;44.40;7.60;;;12.50;99.90;;;;;;4989020;28;20424;-50
2022/12/31 12:26:49;;;;;;;40.08;8.10;;;12.40;99.90;;;;;;4988837;28;20134;-50
2022/12/31 12:29:25;;;;;;;45.53;7.65;;;12.40;99.90;;;;;;4991152;28;20097;-48
2022/12/31 12:32:12;;;;;;;43.00;7.93;;;12.40;99.90;;;;;;4990997;28;20030;-48
2022/12/31 12:34:39;;;;;;;45.08;6.85;;;12.40;99.90;;;;;;4982834;28;20050;-54
2022/12/31 12:37:25;;;;;;;45.55;7.75;;;12.40;99.90;;;;;;4973932;28;20030;-51
2022/12/31 12:40:03;;;;;;;45.45;7.65;;;12.40;99.90;;;;;;4991226;28;20030;-50
2022/12/31 12:42:29;;;;;;;43.85;7.22;;;12.40;99.90;;;;;;4990455;28;20057;-49
2022/12/31 12:45:12;;;;;;;41.33;6.97;;;12.40;99.90;;;;;;4990819;28;20442;-52
2022/12/31 12:47:41;;;;;;;48.53;6.53;;;12.40;99.90;;;;;;4989722;28;20513;-50
2022/12/31 12:50:15;;;;;;;40.10;7.95;;;12.40;99.90;;;;;;4991127;28;20441;-48
2022/12/31 12:52:49;;;;;;;43.80;6.97;;;12.40;99.90;;;;;;4990770;28;20402;-48
2022/12/31 12:55:45;;;;;;;43.00;7.50;;;12.30;99.90;;;;;;4989327;28;20030;-51
2022/12/31 12:58:27;;;;;;;54.63;8.98;;;12.30;99.90;;;;;;4978522;28;20022;-53
2022/12/31 13:01:08;;;;;;;44.20;7.63;;;12.30;99.90;;;;;;4989080;28;20061;-51
2022/12/31 13:03:55;;;;;;;45.85;8.35;;;12.30;99.90;;;;;;4989229;28;20034;-52
2022/12/31 13:06:38;;;;;;;41.72;6.85;;;12.30;99.90;;;;;;4988515;28;20019;-52
2022/12/31 13:09:25;;;;;;;53.22;8.70;;;12.30;99.90;;;;;;4989408;28;20416;-50
2022/12/31 13:11:54;;;;;;;42.45;7.10;;;12.30;99.90;;;;;;4990965;28;20085;-52
2022/12/31 13:14:46;;;;;;;42.35;7.22;;;12.20;99.90;;;;;;4990823;28;20038;-46
2022/12/31 13:17:48;;;;;;;44.70;8.15;;;12.20;99.90;;;;;;4990844;28;20087;-46
2022/12/31 13:20:37;;;;;;;33.53;7.05;;;12.20;99.90;;;;;;4982127;28;20025;-46
2022/12/31 13:23:17;;;;;;;50.63;7.25;;;12.20;99.90;;;;;;4990852;28;20386;-45
2022/12/31 13:26:05;;;;;;;45.50;7.20;;;12.20;99.90;;;;;;4977929;28;20046;-49
2022/12/31 13:28:32;;;;;;;37.67;6.22;;;12.20;99.90;;;;;;4990503;28;20022;-48
2022/12/31 13:31:02;;;;;;;27.73;5.80;;;12.20;99.90;;;;;;4990614;28;20482;-53
2022/12/31 13:33:36;;;;;;;32.33;6.28;;;12.20;99.90;;;;;;4990446;28;20405;-48